Time;durP1;ratioP1;P1;durP2;ratioP2;P2;SDS_P1;SDS_P2;PMS_P1;PMS_P2;Temp;Humidity;BMP_temperature;BMP_pressure;BME280_temperature;BME280_humidity;BME280_pressure;Samples;Min_cycle;Max_cycle;Signal;HPM_P1;HPM_P2
2021/09/03 00:00:52;;;;;;;25.73;14.48;;;15.30;86.20;;;;;;5136153;27;20442;-47
2021/09/03 00:03:18;;;;;;;26.65;15.40;;;15.30;86.50;;;;;;5136079;27;20030;-51
2021/09/03 00:05:44;;;;;;;21.58;15.45;;;15.30;86.70;;;;;;5136117;27;20019;-50
2021/09/03 00:08:09;;;;;;;21.25;14.68;;;15.30;86.70;;;;;;5135994;27;20027;-51
2021/09/03 00:10:35;;;;;;;23.52;16.73;;;15.20;86.80;;;;;;5137156;27;20342;-49
2021/09/03 00:13:01;;;;;;;25.15;14.80;;;15.20;86.90;;;;;;5135960;27;20029;-47
2021/09/03 00:15:26;;;;;;;25.58;16.05;;;15.20;87.00;;;;;;5135877;27;20087;-51
2021/09/03 00:17:52;;;;;;;22.92;15.63;;;15.10;87.00;;;;;;5135856;27;20497;-47
2021/09/03 00:20:18;;;;;;;24.40;16.30;;;15.10;87.10;;;;;;5135750;27;20436;-47
2021/09/03 00:22:44;;;;;;;26.15;15.93;;;15.20;87.20;;;;;;5135959;27;20375;-47
2021/09/03 00:25:10;;;;;;;21.75;15.63;;;15.10;87.10;;;;;;5135670;27;20106;-46
2021/09/03 00:27:36;;;;;;;23.70;16.98;;;15.10;87.20;;;;;;5135870;27;20426;-47
2021/09/03 00:30:04;;;;;;;26.75;16.58;;;15.10;87.20;;;;;;5135494;27;20061;-46
2021/09/03 00:32:29;;;;;;;26.65;15.57;;;15.20;87.00;;;;;;5135722;27;20373;-47
2021/09/03 00:34:55;;;;;;;27.48;16.40;;;15.20;87.30;;;;;;5135956;27;20034;-48
2021/09/03 00:37:20;;;;;;;27.13;17.23;;;15.20;86.50;;;;;;5135565;27;20038;-47
2021/09/03 00:39:46;;;;;;;24.65;16.25;;;15.10;87.10;;;;;;5135301;27;20521;-47
2021/09/03 00:42:13;;;;;;;27.73;17.65;;;15.00;87.50;;;;;;5135333;27;20028;-46
2021/09/03 00:44:39;;;;;;;26.00;16.92;;;14.90;87.60;;;;;;5135414;27;20026;-47
2021/09/03 00:47:04;;;;;;;28.00;16.83;;;14.80;87.90;;;;;;5135259;27;20023;-48
2021/09/03 00:49:31;;;;;;;23.55;15.60;;;14.80;87.90;;;;;;5135432;27;20066;-47
2021/09/03 00:51:59;;;;;;;30.10;17.95;;;14.80;88.10;;;;;;5134610;27;20023;-46
2021/09/03 00:54:25;;;;;;;27.63;16.30;;;14.80;88.10;;;;;;5133568;27;20047;-48
2021/09/03 00:56:50;;;;;;;20.90;15.40;;;14.80;88.30;;;;;;5135035;27;20034;-52
2021/09/03 00:59:16;;;;;;;25.90;17.27;;;14.70;88.40;;;;;;5134824;27;20419;-48
2021/09/03 01:01:41;;;;;;;24.50;15.88;;;14.70;88.60;;;;;;5135045;27;20023;-49
2021/09/03 01:04:07;;;;;;;29.25;17.35;;;14.70;88.60;;;;;;5134887;27;20382;-46
2021/09/03 01:06:33;;;;;;;27.58;19.63;;;14.70;88.40;;;;;;5134947;27;20019;-47
2021/09/03 01:08:59;;;;;;;33.08;20.13;;;14.70;88.50;;;;;;5134880;27;20023;-47
2021/09/03 01:11:24;;;;;;;26.30;17.33;;;14.60;88.70;;;;;;5134798;27;20019;-47
2021/09/03 01:13:51;;;;;;;33.63;18.73;;;14.60;88.90;;;;;;5134821;27;20030;-48
2021/09/03 01:16:16;;;;;;;26.98;18.98;;;14.50;89.00;;;;;;5134517;27;20308;-47
2021/09/03 01:18:42;;;;;;;41.35;24.95;;;14.60;89.10;;;;;;5125685;27;20067;-47
2021/09/03 01:21:08;;;;;;;32.08;18.75;;;14.70;88.50;;;;;;5134744;27;20046;-48
2021/09/03 01:23:34;;;;;;;26.55;18.20;;;14.60;88.60;;;;;;5134628;27;20023;-49
2021/09/03 01:26:02;;;;;;;28.90;19.42;;;14.60;88.80;;;;;;5115906;27;20027;-47
2021/09/03 01:28:27;;;;;;;35.10;18.17;;;14.60;88.60;;;;;;5134568;27;20096;-46
2021/09/03 01:30:53;;;;;;;28.92;18.52;;;14.80;88.20;;;;;;5134314;27;20475;-47
2021/09/03 01:33:19;;;;;;;27.13;17.75;;;14.60;88.10;;;;;;5134258;27;20023;-47
2021/09/03 01:35:44;;;;;;;27.85;18.05;;;14.50;88.60;;;;;;5134231;27;20080;-47
2021/09/03 01:38:10;;;;;;;35.17;20.77;;;14.40;89.10;;;;;;5115861;27;20026;-46
2021/09/03 01:40:35;;;;;;;29.38;18.80;;;14.40;89.30;;;;;;5134121;27;20027;-46
2021/09/03 01:43:01;;;;;;;27.67;18.45;;;14.40;89.40;;;;;;5134260;27;20050;-55
2021/09/03 01:45:27;;;;;;;30.83;20.00;;;14.40;89.40;;;;;;5134042;27;20030;-47
2021/09/03 01:47:52;;;;;;;30.67;20.65;;;14.30;89.40;;;;;;5115467;27;20026;-46
2021/09/03 01:50:18;;;;;;;32.25;20.65;;;14.30;89.50;;;;;;5134017;27;20030;-47
2021/09/03 01:52:44;;;;;;;27.05;19.13;;;14.40;89.40;;;;;;5134276;27;20080;-49
2021/09/03 01:55:10;;;;;;;37.38;22.65;;;14.30;89.50;;;;;;5115361;27;20042;-47
2021/09/03 01:57:35;;;;;;;28.45;19.73;;;14.30;89.70;;;;;;5133856;27;20027;-46
2021/09/03 02:00:01;;;;;;;35.65;19.48;;;14.20;89.90;;;;;;5115532;27;20038;-46
2021/09/03 02:02:29;;;;;;;32.05;19.17;;;14.10;90.00;;;;;;5134091;27;20118;-47
2021/09/03 02:04:54;;;;;;;48.55;23.75;;;14.10;90.20;;;;;;5133360;27;20035;-48
2021/09/03 02:07:20;;;;;;;35.78;21.20;;;14.30;90.00;;;;;;5133742;27;20023;-50
2021/09/03 02:09:46;;;;;;;33.80;22.25;;;14.30;89.50;;;;;;5134006;27;20029;-47
2021/09/03 02:12:12;;;;;;;33.10;22.60;;;14.30;89.20;;;;;;5133745;27;20023;-48
2021/09/03 02:14:41;;;;;;;35.90;23.13;;;14.20;89.50;;;;;;5134019;27;20066;-46
2021/09/03 02:17:06;;;;;;;37.75;22.67;;;14.20;89.80;;;;;;5133702;27;20102;-52
2021/09/03 02:19:32;;;;;;;38.53;24.85;;;14.30;89.00;;;;;;5133543;27;20451;-48
2021/09/03 02:21:57;;;;;;;41.47;21.98;;;14.30;89.20;;;;;;5133580;28;20379;-55
2021/09/03 02:24:23;;;;;;;37.88;20.75;;;14.20;89.40;;;;;;5133898;28;20076;-48
2021/09/03 02:26:49;;;;;;;29.42;19.55;;;14.00;89.90;;;;;;5133914;28;20451;-48
2021/09/03 02:29:14;;;;;;;30.17;22.58;;;14.00;90.20;;;;;;5133646;28;20038;-47
2021/09/03 02:31:40;;;;;;;32.90;20.10;;;13.90;90.10;;;;;;5133581;28;20031;-47
2021/09/03 02:34:05;;;;;;;35.53;22.95;;;13.80;90.40;;;;;;5133511;28;20046;-48
2021/09/03 02:36:31;;;;;;;40.85;23.65;;;14.00;90.80;;;;;;5133825;28;20084;-49
2021/09/03 02:38:57;;;;;;;37.78;23.73;;;14.10;90.40;;;;;;5114974;28;20023;-48
2021/09/03 02:41:22;;;;;;;39.47;25.30;;;14.20;89.50;;;;;;5133679;28;20031;-47
2021/09/03 02:43:48;;;;;;;37.20;22.48;;;14.10;89.50;;;;;;5133541;28;20034;-48
2021/09/03 02:46:14;;;;;;;34.72;21.77;;;14.00;89.80;;;;;;5133619;28;20020;-48
2021/09/03 02:48:39;;;;;;;32.17;20.83;;;13.90;90.20;;;;;;5133339;28;20085;-48
2021/09/03 02:51:05;;;;;;;28.85;20.25;;;13.80;90.40;;;;;;5114969;28;20031;-49
2021/09/03 02:53:30;;;;;;;35.85;23.27;;;13.70;90.60;;;;;;5133175;28;20052;-47
2021/09/03 02:55:56;;;;;;;32.15;20.13;;;13.70;90.90;;;;;;5133389;28;20019;-51
2021/09/03 02:58:22;;;;;;;33.00;21.33;;;13.60;91.00;;;;;;5133522;28;20027;-48
2021/09/03 03:00:47;;;;;;;34.20;23.42;;;13.60;91.10;;;;;;5133825;28;20046;-47
2021/09/03 03:03:13;;;;;;;31.45;22.35;;;13.50;91.10;;;;;;5133832;28;20062;-46
2021/09/03 03:05:38;;;;;;;40.20;23.05;;;13.50;91.30;;;;;;5133337;28;20133;-49
2021/09/03 03:08:05;;;;;;;31.95;23.00;;;13.50;91.50;;;;;;5133230;28;20394;-47
2021/09/03 03:10:30;;;;;;;35.90;22.77;;;13.50;91.60;;;;;;5115323;28;20489;-47
2021/09/03 03:12:58;;;;;;;33.72;22.55;;;13.50;91.50;;;;;;5133264;28;20024;-47
2021/09/03 03:15:24;;;;;;;41.10;23.85;;;13.50;91.50;;;;;;5135272;27;20031;-47
2021/09/03 03:17:50;;;;;;;31.27;22.10;;;13.40;91.60;;;;;;5136971;27;20498;-48
2021/09/03 03:20:16;;;;;;;37.03;23.10;;;13.40;91.80;;;;;;5136756;27;20051;-47
2021/09/03 03:22:44;;;;;;;35.22;21.70;;;13.40;91.70;;;;;;5115394;28;20062;-50
2021/09/03 03:25:10;;;;;;;34.15;22.35;;;13.30;91.70;;;;;;5132303;27;20034;-47
2021/09/03 03:27:36;;;;;;;34.40;22.60;;;13.30;91.70;;;;;;5136998;27;20034;-48
2021/09/03 03:30:04;;;;;;;38.65;23.77;;;13.30;91.70;;;;;;5136831;27;20023;-48
2021/09/03 03:32:30;;;;;;;39.67;23.00;;;13.30;91.80;;;;;;5137050;27;20453;-47
2021/09/03 03:34:55;;;;;;;37.78;24.30;;;13.30;91.80;;;;;;5118336;27;20062;-48
2021/09/03 03:37:21;;;;;;;32.83;23.55;;;13.30;91.80;;;;;;5136488;27;20105;-49
2021/09/03 03:39:46;;;;;;;40.45;24.52;;;13.30;91.80;;;;;;5136581;27;20030;-49
2021/09/03 03:42:12;;;;;;;43.33;25.08;;;13.30;91.90;;;;;;5136517;27;20016;-51
2021/09/03 03:44:38;;;;;;;39.60;25.73;;;13.30;92.00;;;;;;5136799;27;20374;-48
2021/09/03 03:47:03;;;;;;;41.92;26.23;;;13.30;92.00;;;;;;5136495;27;20026;-48
2021/09/03 03:49:29;;;;;;;37.50;24.88;;;13.20;92.10;;;;;;5136723;27;20044;-46
2021/09/03 03:51:55;;;;;;;38.47;25.45;;;13.20;92.00;;;;;;5136334;27;20051;-47
2021/09/03 03:54:20;;;;;;;46.05;25.25;;;13.20;92.00;;;;;;5136186;27;20046;-48
2021/09/03 03:56:46;;;;;;;45.78;27.33;;;13.20;92.00;;;;;;5117732;27;20019;-48
2021/09/03 03:59:12;;;;;;;47.05;30.13;;;13.20;92.10;;;;;;5136362;27;20080;-50
2021/09/03 04:01:37;;;;;;;39.17;26.70;;;13.30;92.10;;;;;;5136422;27;20019;-48
2021/09/03 04:04:03;;;;;;;44.08;27.30;;;13.30;91.70;;;;;;5136295;27;20022;-48
2021/09/03 04:06:29;;;;;;;45.17;26.92;;;13.20;91.80;;;;;;5136003;27;20335;-47
2021/09/03 04:08:54;;;;;;;37.83;25.75;;;13.20;91.90;;;;;;5136312;27;20486;-45
2021/09/03 04:11:20;;;;;;;44.53;28.60;;;13.10;92.00;;;;;;5136135;27;20446;-45
2021/09/03 04:13:45;;;;;;;49.20;30.63;;;13.20;92.20;;;;;;5136021;27;20084;-46
2021/09/03 04:16:11;;;;;;;52.40;31.48;;;13.20;92.30;;;;;;5136080;27;20026;-46
2021/09/03 04:18:38;;;;;;;57.78;33.25;;;13.30;91.90;;;;;;5117595;27;20027;-50
2021/09/03 04:21:06;;;;;;;52.08;31.67;;;13.40;91.50;;;;;;5135507;27;20065;-47
2021/09/03 04:23:31;;;;;;;54.13;32.80;;;13.30;91.70;;;;;;5135591;27;20027;-47
2021/09/03 04:25:57;;;;;;;59.97;33.13;;;13.20;91.80;;;;;;5135361;27;20025;-47
2021/09/03 04:28:23;;;;;;;57.33;32.75;;;13.20;91.90;;;;;;5135051;27;20459;-46
2021/09/03 04:30:49;;;;;;;61.65;33.88;;;13.20;92.20;;;;;;5135346;27;20023;-49
2021/09/03 04:33:15;;;;;;;64.50;35.30;;;13.20;92.30;;;;;;5135440;27;20047;-46
2021/09/03 04:35:40;;;;;;;51.10;31.40;;;13.20;92.30;;;;;;5116865;27;20110;-47
2021/09/03 04:38:06;;;;;;;49.85;31.63;;;13.10;92.40;;;;;;5135552;27;20106;-46
2021/09/03 04:40:32;;;;;;;53.80;33.33;;;13.20;92.60;;;;;;5135170;27;20374;-47
2021/09/03 04:42:57;;;;;;;57.00;34.85;;;13.30;92.30;;;;;;5116805;27;20031;-46
2021/09/03 04:45:23;;;;;;;57.35;34.28;;;13.30;91.90;;;;;;5135829;27;20019;-46
2021/09/03 04:47:50;;;;;;;52.83;33.78;;;13.20;92.00;;;;;;5135113;27;20019;-45
2021/09/03 04:50:16;;;;;;;49.50;31.42;;;13.20;92.10;;;;;;5135078;27;20103;-45
2021/09/03 04:52:43;;;;;;;56.97;31.58;;;13.20;92.10;;;;;;5135103;27;20068;-46
2021/09/03 04:55:09;;;;;;;53.60;31.23;;;13.10;92.30;;;;;;5134690;27;20043;-46
2021/09/03 04:57:42;;;;;;;45.17;29.10;;;13.10;92.40;;;;;;5135054;27;20155;-46
2021/09/03 05:00:09;;;;;;;51.05;30.88;;;13.10;92.30;;;;;;5134858;27;20019;-50
2021/09/03 05:02:35;;;;;;;51.58;31.23;;;13.10;92.40;;;;;;5135388;27;20023;-48
2021/09/03 05:05:01;;;;;;;50.38;31.02;;;13.10;92.50;;;;;;5135289;27;20469;-46
2021/09/03 05:07:27;;;;;;;52.00;31.85;;;13.10;92.50;;;;;;5134814;27;20077;-50
2021/09/03 05:09:52;;;;;;;50.72;32.75;;;13.10;92.40;;;;;;5134828;27;20031;-49
2021/09/03 05:12:18;;;;;;;45.25;29.23;;;13.10;92.30;;;;;;5134877;27;20050;-51
2021/09/03 05:14:43;;;;;;;48.35;29.33;;;13.00;92.20;;;;;;5134936;27;20054;-50
2021/09/03 05:17:09;;;;;;;52.10;31.60;;;13.10;92.60;;;;;;5116132;27;20038;-48
2021/09/03 05:19:35;;;;;;;56.97;33.10;;;13.20;92.30;;;;;;5134517;27;20054;-48
2021/09/03 05:22:00;;;;;;;52.22;30.63;;;13.20;92.10;;;;;;5134362;27;20011;-48
2021/09/03 05:24:26;;;;;;;51.75;30.08;;;13.20;92.10;;;;;;5134223;27;20027;-47
2021/09/03 05:26:52;;;;;;;55.72;32.35;;;13.20;92.20;;;;;;5134337;27;20027;-49
2021/09/03 05:29:18;;;;;;;48.08;29.75;;;13.10;92.20;;;;;;5134308;27;20103;-49
2021/09/03 05:31:44;;;;;;;51.10;32.40;;;13.10;92.30;;;;;;5134259;27;20027;-47
2021/09/03 05:34:09;;;;;;;52.47;32.22;;;13.30;92.00;;;;;;5134529;27;20030;-47
2021/09/03 05:36:35;;;;;;;50.35;30.15;;;13.30;92.10;;;;;;5134082;27;20030;-48
2021/09/03 05:39:01;;;;;;;52.50;32.03;;;13.30;91.90;;;;;;5115479;27;20058;-49
2021/09/03 05:41:26;;;;;;;50.22;32.92;;;13.30;91.80;;;;;;5134409;27;20026;-48
2021/09/03 05:43:52;;;;;;;55.20;33.58;;;13.30;91.80;;;;;;5115506;27;20433;-50
2021/09/03 05:46:18;;;;;;;52.63;30.67;;;13.40;91.90;;;;;;5133647;27;20026;-49
2021/09/03 05:48:43;;;;;;;47.00;32.33;;;13.40;91.70;;;;;;5133762;27;20030;-49
2021/09/03 05:51:09;;;;;;;55.10;34.58;;;13.50;91.70;;;;;;5133926;27;20039;-49
2021/09/03 05:53:34;;;;;;;59.22;32.13;;;13.50;91.60;;;;;;5133753;27;20544;-48
2021/09/03 05:56:00;;;;;;;54.72;32.65;;;13.60;91.30;;;;;;5134195;27;20520;-48
2021/09/03 05:58:26;;;;;;;51.72;33.00;;;13.70;91.00;;;;;;5133792;27;20031;-47
2021/09/03 06:00:51;;;;;;;48.83;32.22;;;13.70;90.90;;;;;;5133513;27;20092;-47
2021/09/03 06:03:17;;;;;;;52.50;34.33;;;13.80;90.70;;;;;;5134338;27;20119;-47
2021/09/03 06:05:42;;;;;;;46.95;31.17;;;13.80;90.80;;;;;;5133568;27;20015;-48
2021/09/03 06:08:08;;;;;;;44.42;30.48;;;13.80;90.90;;;;;;5134319;27;20421;-47
2021/09/03 06:10:34;;;;;;;48.75;32.25;;;14.00;90.80;;;;;;5133376;27;20042;-47
2021/09/03 06:12:59;;;;;;;53.58;33.00;;;14.00;90.50;;;;;;5114929;27;20475;-48
2021/09/03 06:15:25;;;;;;;40.17;31.20;;;14.10;90.40;;;;;;5133132;27;20378;-47
2021/09/03 06:17:50;;;;;;;59.25;32.83;;;14.20;90.10;;;;;;5133550;27;20028;-46
2021/09/03 06:20:16;;;;;;;48.13;29.85;;;14.30;89.70;;;;;;5133070;28;20448;-49
2021/09/03 06:22:42;;;;;;;42.42;28.08;;;14.30;90.20;;;;;;5133574;28;20015;-48
2021/09/03 06:25:08;;;;;;;42.40;29.83;;;14.50;89.90;;;;;;5133695;28;20027;-47
2021/09/03 06:27:34;;;;;;;48.20;30.85;;;14.50;89.50;;;;;;5133712;28;20020;-47
2021/09/03 06:29:59;;;;;;;51.15;30.52;;;14.50;89.60;;;;;;5133738;28;20375;-47
2021/09/03 06:32:29;;;;;;;49.13;31.63;;;14.80;89.30;;;;;;5114902;28;20034;-46
2021/09/03 06:34:59;;;;;;;47.70;31.27;;;14.80;88.90;;;;;;5133357;28;20026;-47
2021/09/03 06:37:27;;;;;;;41.95;27.23;;;14.90;88.70;;;;;;5133186;28;20051;-49
2021/09/03 06:39:53;;;;;;;45.30;31.17;;;15.00;88.40;;;;;;5114569;28;20027;-48
2021/09/03 06:42:19;;;;;;;47.80;29.52;;;15.10;88.20;;;;;;5133084;28;20450;-48
2021/09/03 06:44:45;;;;;;;43.72;28.45;;;15.20;87.60;;;;;;5114768;28;20499;-47
2021/09/03 06:47:12;;;;;;;40.50;25.85;;;15.10;87.80;;;;;;5133354;28;20019;-47
2021/09/03 06:49:38;;;;;;;41.90;28.67;;;15.30;87.40;;;;;;5133838;27;20112;-48
2021/09/03 06:52:05;;;;;;;41.20;25.45;;;15.30;87.40;;;;;;5119067;27;20028;-49
2021/09/03 06:54:31;;;;;;;39.75;25.00;;;15.40;86.50;;;;;;5136951;27;20533;-46
2021/09/03 06:56:58;;;;;;;43.38;26.23;;;15.50;86.40;;;;;;5137096;27;20028;-47
2021/09/03 06:59:23;;;;;;;38.97;23.95;;;15.60;86.00;;;;;;5137568;27;20458;-49
2021/09/03 07:01:49;;;;;;;43.72;25.83;;;15.70;85.50;;;;;;5137706;27;20030;-49
2021/09/03 07:04:15;;;;;;;35.50;23.02;;;15.70;85.20;;;;;;5138223;27;20026;-52
2021/09/03 07:06:41;;;;;;;39.03;23.35;;;15.70;85.30;;;;;;5137832;27;20016;-51
2021/09/03 07:09:06;;;;;;;32.53;22.50;;;15.70;85.20;;;;;;5137430;27;20027;-52
2021/09/03 07:11:33;;;;;;;28.63;22.38;;;15.70;85.00;;;;;;5137292;27;20127;-48
2021/09/03 07:14:02;;;;;;;32.42;22.90;;;16.00;84.30;;;;;;5137416;27;20027;-48
2021/09/03 07:16:27;;;;;;;37.35;23.08;;;16.30;83.10;;;;;;5137400;27;20019;-46
2021/09/03 07:18:53;;;;;;;29.73;22.25;;;16.40;82.60;;;;;;5137432;27;20034;-47
2021/09/03 07:21:19;;;;;;;30.67;20.83;;;16.50;82.40;;;;;;5137269;27;20037;-48
2021/09/03 07:23:45;;;;;;;30.40;20.70;;;16.80;81.20;;;;;;5118354;27;20374;-48
2021/09/03 07:26:10;;;;;;;29.52;21.25;;;17.00;80.60;;;;;;5136947;27;20469;-49
2021/09/03 07:28:36;;;;;;;29.35;21.20;;;17.30;79.40;;;;;;5137307;27;20027;-49
2021/09/03 07:31:02;;;;;;;25.60;18.38;;;17.20;80.00;;;;;;5137029;27;20026;-50
2021/09/03 07:33:28;;;;;;;29.38;20.67;;;17.30;79.40;;;;;;5136816;27;20119;-48
2021/09/03 07:35:54;;;;;;;28.00;19.80;;;17.40;79.00;;;;;;5118655;27;20027;-48
2021/09/03 07:38:19;;;;;;;26.92;18.45;;;17.50;78.50;;;;;;5136396;27;20425;-47
2021/09/03 07:40:45;;;;;;;29.02;19.23;;;17.40;78.80;;;;;;5136509;27;20031;-52
2021/09/03 07:43:13;;;;;;;33.47;18.73;;;17.50;79.00;;;;;;5136458;27;20027;-47
2021/09/03 07:45:39;;;;;;;26.95;18.95;;;17.70;77.90;;;;;;5136209;27;20025;-49
2021/09/03 07:48:06;;;;;;;27.77;19.15;;;17.80;77.60;;;;;;5136136;27;20106;-49
2021/09/03 07:50:33;;;;;;;31.50;19.67;;;17.80;77.30;;;;;;5100515;27;20020;-46
2021/09/03 07:52:59;;;;;;;27.42;17.98;;;17.80;77.10;;;;;;5135784;27;20027;-48
2021/09/03 07:55:25;;;;;;;31.48;19.02;;;18.00;77.10;;;;;;5136423;27;20098;-49
2021/09/03 07:57:51;;;;;;;27.05;17.48;;;18.30;76.60;;;;;;5136018;27;20076;-46
2021/09/03 08:00:17;;;;;;;27.92;18.98;;;18.40;75.60;;;;;;5135160;27;20130;-49
2021/09/03 08:02:43;;;;;;;27.00;17.60;;;18.60;74.90;;;;;;5134091;27;20497;-49
2021/09/03 08:05:09;;;;;;;32.33;17.65;;;18.60;75.20;;;;;;5134608;27;20019;-47
2021/09/03 08:07:35;;;;;;;27.88;18.23;;;18.70;75.30;;;;;;5134941;27;20114;-51
2021/09/03 08:10:01;;;;;;;26.85;17.20;;;19.00;74.10;;;;;;5135133;27;20030;-46
2021/09/03 08:12:27;;;;;;;23.02;15.82;;;19.30;73.00;;;;;;5135259;27;20023;-47
2021/09/03 08:14:52;;;;;;;24.48;16.50;;;19.40;72.80;;;;;;5135649;27;20023;-48
2021/09/03 08:17:18;;;;;;;22.70;15.38;;;20.20;70.50;;;;;;5135630;27;20510;-50
2021/09/03 08:19:45;;;;;;;18.20;13.75;;;21.00;66.40;;;;;;5135079;27;20374;-47
2021/09/03 08:22:11;;;;;;;15.73;12.27;;;21.20;66.00;;;;;;5116822;27;20023;-48
2021/09/03 08:24:37;;;;;;;18.52;13.25;;;21.40;64.80;;;;;;5135582;27;20098;-48
2021/09/03 08:27:03;;;;;;;22.23;13.05;;;21.80;64.20;;;;;;5116643;27;20022;-47
2021/09/03 08:29:29;;;;;;;17.88;12.82;;;22.40;61.90;;;;;;5135333;27;20102;-49
2021/09/03 08:31:55;;;;;;;17.17;12.70;;;22.30;61.80;;;;;;5135280;27;20095;-47
2021/09/03 08:34:21;;;;;;;19.73;12.68;;;22.50;61.60;;;;;;5116851;27;20019;-50
2021/09/03 08:36:46;;;;;;;18.67;12.32;;;22.30;61.70;;;;;;5135229;27;20045;-48
2021/09/03 08:39:12;;;;;;;28.35;12.93;;;22.30;62.70;;;;;;5135052;27;20389;-49
2021/09/03 08:41:38;;;;;;;15.25;10.30;;;22.50;60.80;;;;;;5134883;27;20034;-49
2021/09/03 08:44:04;;;;;;;19.45;12.07;;;22.60;61.10;;;;;;5116199;27;20023;-50
2021/09/03 08:46:33;;;;;;;17.92;13.02;;;22.50;61.20;;;;;;5134144;27;20023;-47
2021/09/03 08:49:04;;;;;;;18.58;12.82;;;23.00;59.70;;;;;;5135234;27;20425;-49
2021/09/03 08:51:30;;;;;;;17.60;13.85;;;23.40;58.00;;;;;;5134944;27;20087;-46
2021/09/03 08:53:56;;;;;;;21.90;13.73;;;24.20;55.90;;;;;;5115818;27;20378;-48
2021/09/03 08:56:22;;;;;;;16.48;13.07;;;23.90;56.10;;;;;;5134800;27;20020;-47
2021/09/03 08:58:49;;;;;;;17.48;13.00;;;24.00;56.00;;;;;;5134432;27;20023;-48
2021/09/03 09:01:16;;;;;;;19.50;12.50;;;24.50;55.10;;;;;;5134576;27;20019;-49
2021/09/03 09:03:48;;;;;;;17.67;11.05;;;24.40;55.20;;;;;;5134917;27;20378;-54
2021/09/03 09:06:22;;;;;;;16.63;11.00;;;24.20;54.20;;;;;;5134818;27;20026;-52
2021/09/03 09:09:06;;;;;;;15.00;11.13;;;24.30;53.70;;;;;;5135784;27;20027;-49
2021/09/03 09:11:35;;;;;;;19.60;9.88;;;24.00;55.40;;;;;;5117375;27;20481;-49
2021/09/03 09:14:08;;;;;;;14.10;10.75;;;24.30;54.80;;;;;;5115640;27;20058;-47
2021/09/03 09:16:34;;;;;;;19.65;10.85;;;23.90;55.00;;;;;;5116121;27;20019;-51
2021/09/03 09:19:05;;;;;;;13.60;10.07;;;23.70;55.90;;;;;;5133531;27;20102;-51
2021/09/03 09:21:39;;;;;;;16.50;10.93;;;24.30;54.60;;;;;;5134013;27;20023;-49
2021/09/03 09:24:04;;;;;;;21.98;11.80;;;24.30;53.90;;;;;;5134259;27;20012;-49
2021/09/03 09:26:47;;;;;;;14.38;9.88;;;24.80;52.90;;;;;;5133984;27;20020;-48
2021/09/03 09:29:23;;;;;;;14.02;10.07;;;25.00;52.50;;;;;;5133922;27;20071;-50
2021/09/03 09:32:04;;;;;;;14.75;10.20;;;24.90;52.80;;;;;;5134047;27;20123;-48
2021/09/03 09:34:33;;;;;;;14.88;10.45;;;24.10;54.90;;;;;;5133896;27;20156;-52
2021/09/03 09:37:07;;;;;;;14.93;11.32;;;24.70;54.40;;;;;;5133769;27;20047;-51
2021/09/03 09:39:57;;;;;;;17.27;10.90;;;25.40;52.20;;;;;;5133782;27;20023;-49
2021/09/03 09:42:22;;;;;;;13.18;9.55;;;25.10;52.50;;;;;;5134153;27;20015;-50
2021/09/03 12:59:42;;;;;;;11.48;6.57;;;28.10;41.40;;;;;;5070726;28;20387;-49
2021/09/03 13:02:08;;;;;;;11.90;8.45;;;27.50;43.10;;;;;;5069180;28;20083;-53
2021/09/03 13:04:34;;;;;;;8.73;7.03;;;28.00;42.30;;;;;;5070358;28;20029;-49
2021/09/03 13:07:00;;;;;;;18.67;7.97;;;28.70;40.90;;;;;;5070129;28;20013;-50
2021/09/03 13:09:28;;;;;;;11.18;7.18;;;28.10;42.50;;;;;;5070209;28;20025;-48
2021/09/03 13:11:55;;;;;;;10.23;7.45;;;27.30;43.90;;;;;;5069698;28;20056;-49
2021/09/03 13:14:22;;;;;;;11.38;8.43;;;26.30;45.90;;;;;;5069471;28;20103;-52
2021/09/03 13:16:48;;;;;;;13.10;8.65;;;26.10;46.30;;;;;;5069833;28;20033;-51
2021/09/03 13:19:15;;;;;;;9.25;6.32;;;25.60;47.40;;;;;;5069789;28;20035;-48
2021/09/03 13:21:43;;;;;;;9.02;6.88;;;25.70;48.20;;;;;;5069874;28;20475;-47
2021/09/03 13:24:10;;;;;;;9.80;7.50;;;25.50;48.10;;;;;;5069782;28;20021;-46
2021/09/03 13:26:36;;;;;;;10.52;8.30;;;25.30;48.40;;;;;;5069404;28;20033;-49
2021/09/03 13:29:04;;;;;;;10.82;7.53;;;25.30;48.70;;;;;;5069496;28;20029;-48
2021/09/03 13:31:29;;;;;;;16.25;9.57;;;25.30;48.10;;;;;;5068892;28;20060;-46
2021/09/03 13:33:58;;;;;;;10.70;7.25;;;25.40;47.60;;;;;;5069270;28;20078;-49
2021/09/03 13:36:25;;;;;;;11.52;7.35;;;25.60;47.20;;;;;;5069182;28;20086;-48
2021/09/03 13:38:58;;;;;;;11.30;7.00;;;25.50;47.70;;;;;;5068758;28;20028;-50
2021/09/03 13:41:24;;;;;;;12.82;6.97;;;25.70;47.80;;;;;;5069236;28;20033;-47
2021/09/03 13:43:50;;;;;;;11.20;6.63;;;25.70;47.60;;;;;;5068735;28;20032;-48
2021/09/03 13:46:17;;;;;;;11.43;6.93;;;25.80;48.30;;;;;;5068740;28;20024;-47
2021/09/03 13:48:43;;;;;;;8.48;6.28;;;26.00;48.10;;;;;;5069043;28;20031;-47
2021/09/03 13:51:10;;;;;;;11.50;6.72;;;25.50;49.10;;;;;;5068354;28;20043;-50
2021/09/03 13:53:36;;;;;;;9.05;6.38;;;25.30;50.00;;;;;;5067202;28;20063;-50
2021/09/03 13:56:02;;;;;;;10.10;6.68;;;25.20;49.60;;;;;;5068614;28;20029;-48
2021/09/03 13:58:29;;;;;;;9.85;6.47;;;25.40;49.40;;;;;;5068450;28;20049;-49
2021/09/03 14:00:56;;;;;;;7.90;7.10;;;25.80;48.00;;;;;;5067256;28;20107;-47
2021/09/03 14:03:22;;;;;;;13.68;8.75;;;25.70;47.90;;;;;;5068833;28;20396;-51
2021/09/03 14:05:47;;;;;;;8.85;6.20;;;25.70;47.70;;;;;;5068816;28;20025;-47
2021/09/03 14:08:13;;;;;;;8.90;6.07;;;25.70;48.10;;;;;;5069055;28;20429;-49
2021/09/03 14:10:39;;;;;;;12.27;8.20;;;25.70;47.60;;;;;;5057717;28;20492;-52
2021/09/03 14:13:05;;;;;;;9.93;6.15;;;25.60;47.90;;;;;;5055227;28;20071;-49
2021/09/03 14:15:31;;;;;;;10.82;6.85;;;25.50;47.90;;;;;;5053553;28;20075;-49
2021/09/03 14:17:57;;;;;;;9.00;5.85;;;25.20;49.00;;;;;;5055564;28;20040;-49
2021/09/03 14:20:24;;;;;;;13.23;6.15;;;25.20;48.90;;;;;;5055413;28;20032;-49
2021/09/03 14:22:51;;;;;;;8.18;6.07;;;25.00;48.90;;;;;;5055525;28;20025;-47
2021/09/03 14:25:18;;;;;;;7.95;5.20;;;24.90;49.80;;;;;;5055242;28;20495;-51
2021/09/03 14:27:45;;;;;;;10.35;6.47;;;24.90;49.70;;;;;;5054975;28;20455;-49
2021/09/03 14:30:13;;;;;;;8.82;6.35;;;25.10;49.70;;;;;;5055009;28;20036;-48
2021/09/03 14:32:40;;;;;;;7.10;5.55;;;25.00;49.40;;;;;;5054519;28;20089;-50
2021/09/03 14:35:07;;;;;;;9.38;5.80;;;25.00;49.60;;;;;;5055503;28;20485;-52
2021/09/03 14:37:33;;;;;;;8.93;5.75;;;25.10;49.10;;;;;;5054374;28;20029;-49
2021/09/03 14:40:01;;;;;;;8.05;5.90;;;25.20;48.10;;;;;;5055403;28;20032;-48
2021/09/03 14:42:26;;;;;;;10.30;6.40;;;25.20;48.60;;;;;;5054547;28;20028;-48
2021/09/03 14:44:52;;;;;;;8.95;5.85;;;25.00;48.40;;;;;;5053003;28;20021;-49
2021/09/03 14:47:18;;;;;;;11.55;7.85;;;25.00;48.20;;;;;;5054697;28;20021;-48
2021/09/03 14:49:44;;;;;;;6.45;5.45;;;24.80;47.90;;;;;;5054016;28;20131;-48
2021/09/03 14:52:09;;;;;;;9.05;5.65;;;24.80;48.60;;;;;;5054316;28;20112;-49
2021/09/03 14:54:36;;;;;;;7.03;5.18;;;24.80;49.10;;;;;;5054582;28;20020;-48
2021/09/03 14:57:02;;;;;;;8.50;5.70;;;24.90;48.50;;;;;;5054305;28;20021;-48
2021/09/03 14:59:28;;;;;;;7.68;5.25;;;24.80;49.10;;;;;;5054216;28;20052;-47
2021/09/03 15:01:54;;;;;;;10.50;6.40;;;24.70;50.40;;;;;;5053922;28;20025;-47
2021/09/03 15:04:20;;;;;;;6.60;5.68;;;24.70;50.00;;;;;;5053692;28;20033;-49
2021/09/03 15:06:45;;;;;;;10.48;5.93;;;24.80;50.30;;;;;;5054094;28;20021;-49
2021/09/03 15:09:13;;;;;;;10.15;5.80;;;24.80;50.20;;;;;;5054079;28;20535;-50
2021/09/03 15:11:39;;;;;;;8.63;5.82;;;24.80;50.40;;;;;;5054968;28;20029;-50
2021/09/03 15:14:05;;;;;;;7.85;5.40;;;24.80;50.70;;;;;;5054061;28;20416;-47
2021/09/03 15:16:32;;;;;;;15.95;6.47;;;24.80;49.80;;;;;;5054022;28;20055;-47
2021/09/03 15:18:58;;;;;;;8.88;6.55;;;24.60;49.60;;;;;;5054709;28;20044;-51
2021/09/03 15:21:23;;;;;;;9.60;6.60;;;24.80;50.00;;;;;;5052972;28;20021;-48
2021/09/03 15:23:53;;;;;;;9.88;6.72;;;24.80;50.00;;;;;;5054043;28;20029;-48
2021/09/03 15:26:19;;;;;;;10.33;5.70;;;24.90;50.20;;;;;;5054454;28;20124;-50
2021/09/03 15:28:45;;;;;;;11.25;6.82;;;24.80;50.30;;;;;;5054386;28;20663;-48
2021/09/03 15:31:10;;;;;;;7.60;6.00;;;24.70;50.90;;;;;;5053562;28;20457;-52
2021/09/03 15:33:36;;;;;;;11.20;5.82;;;24.60;50.90;;;;;;5053767;28;20082;-47
2021/09/03 15:36:02;;;;;;;11.13;6.78;;;24.80;50.80;;;;;;5053465;28;20034;-48
2021/09/03 15:38:28;;;;;;;10.43;6.13;;;24.80;50.40;;;;;;5053188;28;20426;-49
2021/09/03 15:40:54;;;;;;;15.13;8.20;;;24.90;49.90;;;;;;5053223;28;20056;-48